• Join FlightAware (Why Join?)
  • Login
  • US Flag 
08:13PM EDT


 

Airport Tracker/Info


-or-


 

Live Flight TrackerFlight Track Log ✈ N498QS ✈ 19-May-2013 ✈ KSJC - KTEB

Flight Track Log - Related Links

Times and Time Zones

All times are in EDT time to prevent confusion due to time zone crossing. See the N498QS flight status page for this flight to view local times or setup timezone preferences in your user account.

Time Position Orientation Groundspeed Altitude Reporting Facility
EDT Latitude Longitude Course Direction KTS MPH feet Rate Location/Type
06:39PM 37.4000 -121.9833 50° Northeast 196 226 2,700  Level Northern Cal TRACON
06:40PM 37.4333 -121.9333 50° Northeast 226 260 5,000 1,500 Climbing Northern Cal TRACON
06:41PM 37.3833 -121.8833 142° Southeast 235 270 5,700 1,560 Climbing Northern Cal TRACON
06:42PM 37.3475 -121.8331 132° Southeast 233 268 8,000 2,400 Climbing Oakland Center
06:43PM 37.3011 -121.8697 212° Southwest 245 282 10,300 1,800 Climbing Oakland Center
06:44PM 37.3500 -121.9228 319° Northwest 240 276 11,700 1,080 Climbing Oakland Center
06:45PM 37.4317 -121.9942 325° Northwest 296 341 12,600 1,200 Climbing Oakland Center
06:46PM 37.5256 -121.9700 12° North 342 394 14,200 1,860 Climbing Oakland Center
06:47PM 37.6186 -121.9272 20° North 356 410 16,400 1,920 Climbing Oakland Center
06:48PM 37.7153 -121.8822 20° North 368 423 18,200 1,620 Climbing Oakland Center
06:49PM 37.7933 -121.7942 42° Northeast 394 453 19,800 1,620 Climbing Oakland Center
06:50PM 37.8531 -121.6661 59° Northeast 421 484 21,600 2,040 Climbing Oakland Center
06:51PM 37.9094 -121.5414 60° Northeast 413 475 24,000 1,800 Climbing Oakland Center
06:52PM 37.9733 -121.3972 61° Northeast 417 480 25,300 1,080 Climbing Oakland Center
06:53PM 38.0350 -121.2592 60° Northeast 444 511 26,300 1,080 Climbing Oakland Center
06:54PM 38.0969 -121.1158 61° Northeast 461 531 27,500 1,140 Climbing Oakland Center
06:55PM 38.1597 -120.9722 61° Northeast 469 540 28,700 1,260 Climbing Oakland Center
06:56PM 38.2233 -120.8250 61° Northeast 475 547 30,100 1,620 Climbing Oakland Center
06:57PM 38.3003 -120.6500 61° Northeast 476 548 32,000 1,620 Climbing Oakland Center
06:58PM 38.3631 -120.5053 61° Northeast 472 543 33,400 1,260 Climbing Oakland Center
06:59PM 38.4253 -120.3572 62° Northeast 472 543 34,600 1,260 Climbing Oakland Center
07:00PM 38.4892 -120.2100 61° Northeast 476 548 36,100 1,320 Climbing Oakland Center
07:01PM 38.5514 -120.0633 61° Northeast 472 543 37,300 1,140 Climbing Oakland Center
07:02PM 38.6144 -119.9161 61° Northeast 473 544 38,500 900 Climbing Oakland Center
07:03PM 38.6753 -119.7694 62° Northeast 473 544 39,200 780 Climbing Oakland Center
07:04PM 38.7372 -119.6158 63° Northeast 487 560 40,100 840 Climbing Oakland Center
07:05PM 38.8106 -119.4433 61° Northeast 461 531 41,000 420 Climbing Oakland Center
07:06PM 38.8722 -119.2967 62° Northeast 466 536 41,000  Level Oakland Center
07:07PM 38.9325 -119.1500 62° Northeast 467 537 41,000  Level Oakland Center
07:08PM 38.9917 -119.0033 63° Northeast 466 536 41,000  Level Oakland Center
07:09PM 39.0514 -118.8586 62° Northeast 463 533 41,000  Level Oakland Center
07:10PM 39.1108 -118.7114 62° Northeast 466 536 41,000  Level Oakland Center
07:11PM 39.1703 -118.5667 62° Northeast 465 535 41,000  Level Oakland Center
07:12PM 39.2353 -118.4039 63° Northeast 471 542 41,000  Level Oakland Center
07:13PM 39.3019 -118.2381 63° Northeast 477 549 41,000  Level Oakland Center
07:15PM 39.3639 -118.0850 62° Northeast 482 555 41,000  Level Oakland Center
07:16PM 39.4247 -117.9281 63° Northeast 489 563 41,000  Level Oakland Center
07:17PM 39.4867 -117.7706 63° Northeast 492 566 41,000  Level Oakland Center
07:18PM 39.5500 -117.6117 63° Northeast 497 572 41,000  Level Oakland Center
07:19PM 39.6122 -117.4497 63° Northeast 501 577 41,000  Level Oakland Center
07:20PM 39.6811 -117.2742 63° Northeast 506 582 41,000  Level Oakland Center
07:20PM 39.7011 -117.2197 64° Northeast 509 586 41,000  Level Salt Lake Center
07:21PM 39.7611 -117.0636 63° Northeast 507 583 41,000  Level Salt Lake Center
07:22PM 39.8306 -116.8814 64° Northeast 505 581 41,000  Level Salt Lake Center
07:23PM 39.8867 -116.7336 64° Northeast 485 558 41,000  Level Salt Lake Center
07:24PM 39.9319 -116.6158 63° Northeast 470 541 41,000  Level Oakland Center
07:25PM 39.9853 -116.4739 64° Northeast 460 529 41,000  Level Oakland Center
07:26PM 40.0383 -116.3300 64° Northeast 463 533 41,000  Level Oakland Center
07:26PM 40.0664 -116.2567 63° Northeast 465 535 41,000  Level Salt Lake Center
07:27PM 40.1200 -116.1106 64° Northeast 466 536 41,000  Level Salt Lake Center
07:28PM 40.1858 -115.9369 64° Northeast 475 547 41,000  Level Salt Lake Center
07:29PM 40.2411 -115.7892 64° Northeast 475 547 41,000  Level Salt Lake Center
07:30PM 40.2964 -115.6389 64° Northeast 478 550 41,000  Level Salt Lake Center
07:31PM 40.3597 -115.4633 65° Northeast 479 551 41,000  Level Salt Lake Center
07:32PM 40.4150 -115.3117 64° Northeast 480 552 41,000  Level Salt Lake Center
07:33PM 40.4794 -115.1347 64° Northeast 482 555 41,000  Level Salt Lake Center
07:34PM 40.5333 -114.9831 65° Northeast 480 552 41,000  Level Salt Lake Center
07:35PM 40.5864 -114.8344 65° Northeast 473 544 41,000  Level Salt Lake Center
07:36PM 40.6464 -114.6697 64° Northeast 470 541 41,000  Level Salt Lake Center
07:37PM 40.7008 -114.5122 65° Northeast 472 543 41,000  Level Salt Lake Center
07:38PM 40.7556 -114.3544 65° Northeast 474 545 41,000  Level Salt Lake Center
07:39PM 40.8214 -114.1672 65° Northeast 471 542 41,000  Level Salt Lake Center
07:40PM 40.8758 -114.0100 65° Northeast 471 542 41,000  Level Salt Lake Center
07:41PM 40.9292 -113.8536 66° East 469 540 41,000  Level Salt Lake Center
07:43PM 40.9822 -113.6975 66° East 467 537 41,000  Level Salt Lake Center
07:44PM 41.0350 -113.5425 66° East 464 534 41,000  Level Salt Lake Center
07:45PM 41.0869 -113.3864 66° East 463 533 41,000  Level Salt Lake Center
07:46PM 41.1394 -113.2289 66° East 467 537 41,000  Level Salt Lake Center
07:47PM 41.1933 -113.0711 66° East 470 541 41,000  Level Salt Lake Center
07:48PM 41.2572 -112.8800 66° East 471 542 41,000  Level Salt Lake Center
07:49PM 41.3097 -112.7186 67° East 475 547 41,000  Level Salt Lake Center
07:50PM 41.3631 -112.5583 66° East 472 543 41,000  Level Salt Lake Center
07:51PM 41.4158 -112.3981 66° East 472 543 41,000  Level Salt Lake Center
07:52PM 41.4678 -112.2372 67° East 471 542 41,000  Level Salt Lake Center
07:53PM 41.5197 -112.0767 67° East 469 540 41,000  Level Salt Lake Center
07:54PM 41.5708 -111.9178 67° East 464 534 41,000  Level Salt Lake Center
07:55PM 41.6219 -111.7583 67° East 464 534 41,000  Level Salt Lake Center
07:56PM 41.6733 -111.5972 67° East 469 540 41,000  Level Salt Lake Center
07:57PM 41.7231 -111.4364 67° East 467 537 41,000  Level Salt Lake Center
07:58PM 41.7844 -111.2431 67° East 470 541 41,000  Level Salt Lake Center
07:59PM 41.8350 -111.0817 67° East 470 541 41,000  Level Salt Lake Center
08:00PM 41.8881 -110.9106 67° East 474 545 41,000  Level Salt Lake Center
08:01PM 41.9364 -110.7544 67° East 473 544 41,000  Level Salt Lake Center
08:02PM 41.9850 -110.5969 67° East 476 548 41,000  Level Salt Lake Center
08:03PM 42.0400 -110.4136 68° East 474 545 41,000  Level Salt Lake Center
08:04PM 42.0864 -110.2569 68° East 471 542 41,000  Level Salt Lake Center
08:05PM 42.1431 -110.0708 68° East 479 551 41,000  Level Salt Lake Center
08:06PM 42.1894 -109.9142 68° East 472 543 41,000  Level Salt Lake Center
08:07PM 42.2364 -109.7553 68° East 475 547 41,000  Level Salt Lake Center
08:08PM 42.2925 -109.5683 68° East 479 551 41,000  Level Salt Lake Center
08:09PM 42.3394 -109.4083 68° East 477 549 41,000  Level Salt Lake Center
08:10PM 42.3939 -109.2197 69° East 481 554 41,000  Level Salt Lake Center
08:11PM 42.4408 -109.0597 68° East 479 551 41,000  Level Salt Lake Center
08:12PM 42.4872 -108.8972 69° East 481 554 41,000  Level Salt Lake Center
08:13PM 42.5397 -108.7078 69° East 479 551 41,000  Level Salt Lake Center
08:14PM 42.5861 -108.5481 68° East 477 549 41,000  Level Salt Lake Center
08:15PM 42.6389 -108.3589 69° East 479 551 41,000  Level Salt Lake Center
08:16PM 42.6831 -108.1964 70° East 478 550 41,000  Level Salt Lake Center
08:17PM 42.7283 -108.0350 69° East 478 550 41,000  Level Salt Lake Center
08:18PM 42.7800 -107.8444 70° East 480 552 41,000  Level Salt Lake Center
08:19PM 42.8239 -107.6806 70° East 481 554 41,000  Level Salt Lake Center
08:20PM 42.8756 -107.4894 70° East 481 554 41,000  Level Salt Lake Center
08:22PM 42.9200 -107.3272 69° East 478 550 41,000  Level Salt Lake Center
08:23PM 42.9678 -107.1442 70° East 480 552 41,000  Level Salt Lake Center
08:24PM 43.0181 -106.9575 70° East 477 549 41,000  Level Denver Center
08:25PM 43.0617 -106.7947 70° East 477 549 41,000  Level Denver Center
08:26PM 43.1111 -106.6025 71° East 479 551 41,000  Level Denver Center
08:27PM 43.1544 -106.4406 70° East 475 547 41,000  Level Denver Center
08:28PM 43.2022 -106.2506 71° East 473 544 41,000  Level Denver Center
08:29PM 43.2439 -106.0883 71° East 472 543 41,000  Level Denver Center
08:30PM 43.2864 -105.9236 70° East 476 548 41,000  Level Denver Center
08:31PM 43.3331 -105.7319 71° East 474 545 41,000  Level Denver Center
08:32PM 43.3750 -105.5692 70° East 473 544 41,000  Level Denver Center
08:33PM 43.4217 -105.3781 71° East 472 543 41,000  Level Denver Center
08:34PM 43.4625 -105.2158 71° East 470 541 41,000  Level Denver Center
08:35PM 43.4953 -105.0778 72° East 472 543 41,000  Level Denver Center
08:36PM 43.5481 -104.8603 71° East 469 540 41,000  Level Denver Center
08:37PM 43.5886 -104.6925 71° East 476 548 41,000  Level Denver Center
08:38PM 43.6275 -104.5292 72° East 471 542 41,000  Level Denver Center
08:39PM 43.6736 -104.3350 72° East 475 547 41,000  Level Denver Center
08:40PM 43.7125 -104.1703 72° East 469 540 41,000  Level Denver Center
08:41PM 43.7578 -103.9756 72° East 474 545 41,000  Level Denver Center
08:42PM 43.7961 -103.8061 73° East 480 552 41,000  Level Denver Center
08:43PM 43.8347 -103.6394 72° East 478 550 41,000  Level Denver Center
08:44PM 43.8786 -103.4436 73° East 476 548 41,000  Level Denver Center
08:45PM 43.9175 -103.2767 72° East 475 547 41,000  Level Denver Center
08:47PM 43.9781 -102.9914 73° East 479 551 41,000  Level Minneapolis Center
08:47PM 43.9939 -102.9081 75° East 479 551 41,000  Level Denver Center
08:48PM 44.0150 -102.7378 80° East 479 551 41,000  Level Denver Center
08:49PM 44.0411 -102.5558 79° East 481 554 41,000  Level Denver Center
08:50PM 44.0656 -102.3781 79° East 475 547 41,000  Level Denver Center
08:51PM 44.0936 -102.1619 80° East 472 543 41,000  Level Denver Center
08:52PM 44.1186 -101.9814 79° East 475 547 41,000  Level Denver Center
08:54PM 44.1461 -101.7614 80° East 480 552 41,000  Level Denver Center
08:55PM 44.1764 -101.5419 79° East 482 555 41,000  Level Denver Center
08:55PM 44.1881 -101.4717 77° East 480 552 41,000  Level Minneapolis Center
08:56PM 44.1997 -101.3589 82° East 482 555 41,000  Level Denver Center
08:56PM 44.2114 -101.2894 77° East 480 552 41,000  Level Minneapolis Center
08:57PM 44.2350 -101.1075 80° East 480 552 41,000  Level Minneapolis Center
08:58PM 44.2592 -100.9269 79° East 478 550 41,000  Level Minneapolis Center
08:59PM 44.2825 -100.7469 80° East 476 548 41,000  Level Minneapolis Center
09:00PM 44.3050 -100.5656 80° East 476 548 41,000  Level Minneapolis Center
09:01PM 44.3317 -100.3467 80° East 478 550 41,000  Level Minneapolis Center
09:03PM 44.3581 -100.1283 80° East 478 550 41,000  Level Minneapolis Center
09:04PM 44.3808 -99.9461 80° East 479 551 41,000  Level Minneapolis Center
09:05PM 44.4011 -99.7622 81° East 481 554 41,000 240 Level Minneapolis Center
09:06PM 44.4236 -99.5794 80° East 481 554 41,500 480 Climbing Minneapolis Center
09:07PM 44.4442 -99.3989 81° East 477 549 42,100 660 Climbing Minneapolis Center
09:08PM 44.4725 -99.1506 81° East 467 537 43,000 360 Climbing Minneapolis Center
09:09PM 44.4914 -98.9739 81° East 462 532 43,000  Level Minneapolis Center
09:10PM 44.5108 -98.7942 81° East 466 536 43,000  Level Minneapolis Center
09:11PM 44.5353 -98.5792 81° East 467 537 43,000  Level Minneapolis Center
09:12PM 44.5525 -98.4003 82° East 466 536 43,000  Level Minneapolis Center
09:13PM 44.5731 -98.1989 82° East 460 529 43,000  Level Minneapolis Center
09:14PM 44.5908 -98.0247 82° East 455 524 43,000  Level Minneapolis Center
09:15PM 44.6031 -97.8497 84° East 453 521 43,000  Level Minneapolis Center
09:16PM 44.6139 -97.6375 86° East 455 524 43,000  Level Minneapolis Center
09:18PM 44.6222 -97.4628 86° East 452 520 43,000  Level Minneapolis Center
09:19PM 44.6317 -97.2875 86° East 451 519 43,000  Level Minneapolis Center
09:20PM 44.6392 -97.1108 87° East 452 520 43,000  Level Minneapolis Center
09:21PM 44.6494 -96.8986 86° East 454 522 43,000  Level Minneapolis Center
09:22PM 44.6569 -96.7244 86° East 447 514 43,000  Level Minneapolis Center
09:23PM 44.6633 -96.5503 87° East 446 513 43,000  Level Minneapolis Center
09:24PM 44.6722 -96.3733 86° East 451 519 43,000  Level Minneapolis Center
09:25PM 44.6800 -96.1964 86° East 451 519 43,000  Level Minneapolis Center
09:26PM 44.6875 -96.0144 87° East 461 531 43,000  Level Minneapolis Center
09:27PM 44.6933 -95.8339 87° East 461 531 43,000  Level Minneapolis Center
09:28PM 44.7000 -95.6575 87° East 453 521 43,000  Level Minneapolis Center
09:29PM 44.7069 -95.4792 87° East 455 524 43,000  Level Minneapolis Center
09:30PM 44.7136 -95.2347 88° East 449 517 43,000  Level Minneapolis Center
09:31PM 44.7189 -95.0603 88° East 447 514 43,000  Level Minneapolis Center
09:32PM 44.7242 -94.8867 87° East 446 513 43,000  Level Minneapolis Center
09:33PM 44.7294 -94.7125 87° East 447 514 43,000  Level Minneapolis Center
09:34PM 44.7333 -94.5258 88° East 445 512 43,000  Level Minneapolis Center
09:35PM 44.7386 -94.3203 88° East 441 507 43,000  Level Minneapolis Center
09:36PM 44.7419 -94.1497 88° East 439 505 43,000  Level Minneapolis Center
09:37PM 44.7453 -93.9783 88° East 439 505 43,000  Level Minneapolis Center
09:38PM 44.7483 -93.8061 89° East 443 510 43,000  Level Minneapolis Center
09:40PM 44.7511 -93.6339 89° East 442 509 43,000  Level Minneapolis Center
09:41PM 44.7542 -93.4300 89° East 438 504 43,000  Level Minneapolis Center
09:42PM 44.7561 -93.2794 89° East 437 503 43,000  Level Minneapolis Center
09:43PM 44.7544 -93.1150 91° East 430 495 43,000 240 Level Minneapolis Center
09:44PM 44.7486 -92.9108 92° East 430 495 43,600 720 Climbing Minneapolis Center
09:45PM 44.7433 -92.7442 92° East 431 496 44,500 480 Climbing Minneapolis Center
09:46PM 44.7375 -92.5786 93° East 426 490 44,700 240 Climbing Minneapolis Center
09:47PM 44.7317 -92.4078 93° East 437 503 45,000 120 Climbing Minneapolis Center
09:48PM 44.7261 -92.2364 93° East 440 506 45,000  Level Minneapolis Center
09:49PM 44.7194 -92.0594 93° East 450 518 45,000  Level Minneapolis Center
09:50PM 44.7128 -91.8856 93° East 449 517 45,000  Level Minneapolis Center
09:51PM 44.7067 -91.7125 93° East 446 513 45,000  Level Minneapolis Center
09:52PM 44.6972 -91.5011 94° East 451 519 45,000  Level Minneapolis Center
09:53PM 44.6897 -91.3236 93° East 455 524 45,000  Level Minneapolis Center
09:54PM 44.6825 -91.1469 93° East 456 525 45,000  Level Minneapolis Center
09:55PM 44.6733 -90.9367 93° East 453 521 45,000  Level Minneapolis Center
09:56PM 44.6617 -90.7606 95° East 454 522 45,000  Level Minneapolis Center
09:57PM 44.6539 -90.5861 94° East 450 518 45,000  Level Minneapolis Center
09:58PM 44.6444 -90.3967 94° East 449 517 45,000  Level Minneapolis Center
09:59PM 44.6336 -90.1908 94° East 453 521 45,000  Level Minneapolis Center
10:00PM 44.6222 -89.9800 94° East 462 532 45,000  Level Minneapolis Center
10:01PM 44.6125 -89.8011 94° East 459 528 45,000  Level Minneapolis Center
10:02PM 44.6011 -89.6228 95° East 459 528 45,000  Level Minneapolis Center
10:03PM 44.5908 -89.4414 94° East 464 534 45,000  Level Minneapolis Center
10:05PM 44.5806 -89.2628 95° East 459 528 45,000  Level Minneapolis Center
10:06PM 44.5689 -89.0836 95° East 460 529 45,000  Level Minneapolis Center
10:07PM 44.5572 -88.9031 95° East 462 532 45,000  Level Minneapolis Center
10:08PM 44.5453 -88.7258 95° East 458 527 45,000  Level Minneapolis Center
10:09PM 44.5289 -88.4869 95° East 460 529 45,000  Level Minneapolis Center
10:10PM 44.5214 -88.3650 95° East 465 535 45,000  Level Minneapolis Center
10:11PM 44.5042 -88.1239 96° East 466 536 45,000  Level Minneapolis Center
10:12PM 44.4908 -87.9422 96° East 468 539 45,000  Level Minneapolis Center
10:13PM 44.4811 -87.8172 96° East 472 543 45,000  Level Minneapolis Center
10:14PM 44.4608 -87.5606 96° East 479 551 45,000  Level Minneapolis Center
10:15PM 44.4483 -87.3881 96° East 478 550 45,000  Level Minneapolis Center
10:16PM 44.4325 -87.2022 97° East 480 552 45,000  Level Minneapolis Center
10:17PM 44.4172 -87.0092 96° East 476 548 45,000  Level Minneapolis Center
10:18PM 44.3989 -86.7914 97° East 474 545 45,000  Level Minneapolis Center
10:19PM 44.3831 -86.6108 97° East 472 543 45,000  Level Minneapolis Center
10:20PM 44.3692 -86.4292 96° East 474 545 45,000  Level Minneapolis Center
10:21PM 44.3531 -86.2117 96° East 474 545 45,000  Level Minneapolis Center
10:22PM 44.3386 -86.0300 96° East 475 547 45,000  Level Minneapolis Center
10:23PM 44.3256 -85.8486 96° East 476 548 45,000  Level Minneapolis Center
10:24PM 44.3111 -85.6686 96° East 472 543 45,000  Level Minneapolis Center
10:25PM 44.2972 -85.4875 96° East 472 543 45,000  Level Minneapolis Center
10:26PM 44.2825 -85.3058 96° East 473 544 45,000  Level Minneapolis Center
10:28PM 44.2664 -85.1256 97° East 473 544 45,000  Level Minneapolis Center
10:29PM 44.2447 -84.8686 97° East 477 549 45,000  Level Minneapolis Center
10:30PM 44.2286 -84.6847 97° East 478 550 45,000  Level Minneapolis Center
10:31PM 44.2119 -84.5031 97° East 476 548 45,000  Level Minneapolis Center
10:32PM 44.1956 -84.3222 97° East 473 544 45,000  Level Minneapolis Center
10:33PM 44.1792 -84.1417 97° East 471 542 45,000  Level Minneapolis Center
10:34PM 44.1619 -83.9611 98° East 472 543 45,000  Level Minneapolis Center
10:35PM 44.1450 -83.7822 97° East 469 540 45,000  Level Minneapolis Center
10:36PM 44.1269 -83.6044 98° East 467 537 45,000  Level Minneapolis Center
10:37PM 44.1103 -83.4267 97° East 465 535 45,000  Level Minneapolis Center
10:38PM 44.0872 -83.2133 98° East 466 536 45,000  Level Minneapolis Center
10:39PM 44.0669 -83.0017 98° East 463 533 45,000  Level Minneapolis Center
10:40PM 44.0481 -82.8242 98° East 465 535 45,000  Level Minneapolis Center
10:41PM 44.0286 -82.6478 99° East 464 534 45,000  Level Minneapolis Center
10:42PM 44.0100 -82.4697 98° East 466 536 45,000  Level Minneapolis Center
10:43PM 43.9667 -82.2667 106° East 470 541 45,000  Level Toronto Center
10:44PM 43.9500 -82.1167 99° East 470 541 45,000  Level Toronto Center
10:45PM 43.9333 -81.9167 97° East 460 529 45,000  Level Toronto Center
10:46PM 43.9167 -81.7667 99° East 460 529 45,000  Level Toronto Center
10:47PM 43.9000 -81.5833 97° East 460 529 45,000  Level Toronto Center
10:48PM 43.8667 -81.3833 103° East 460 529 45,000  Level Toronto Center
10:49PM 43.8500 -81.2333 99° East 470 541 45,000  Level Toronto Center
10:50PM 43.8167 -81.0500 104° East 460 529 45,000  Level Toronto Center
10:51PM 43.8000 -80.8833 98° East 460 529 45,000  Level Toronto Center
10:52PM 43.8000 -80.6667 90° East 470 541 45,000  Level Toronto Center
10:53PM 43.7667 -80.5167 107° East 470 541 45,000  Level Toronto Center
10:54PM 43.7500 -80.3500 98° East 470 541 45,000  Level Toronto Center
10:55PM 43.7167 -80.1333 102° East 470 541 45,000  Level Toronto Center
10:56PM 43.7000 -79.9833 99° East 470 541 45,000  Level Toronto Center
10:57PM 43.6667 -79.8000 104° East 480 552 45,000  Level Toronto Center
10:58PM 43.6500 -79.6167 97° East 480 552 45,000  Level Toronto Center
10:59PM 43.6500 -79.4333 90° East 480 552 45,000  Level Toronto Center
11:00PM 43.6667 -79.2333 83° East 470 541 45,000  Level Toronto Center
11:01PM 43.6667 -79.0500 90° East 480 552 45,000  Level Toronto Center
11:02PM 43.6833 -78.8667 83° East 480 552 45,000  Level Toronto Center
11:03PM 43.6833 -78.6833 90° East 480 552 45,000  Level Toronto Center
11:04PM 43.6833 -78.5333 90° East 470 541 45,000  Level Toronto Center
11:05PM 43.6833 -78.3167 90° East 480 552 45,000  Level Toronto Center
11:06PM 43.6833 -78.1500 90° East 480 552 45,000  Level Toronto Center
11:07PM 43.7000 -77.9667 83° East 480 552 45,000 -60 Level Toronto Center
11:08PM 43.7000 -77.7833 90° East 480 552 44,900 -1,440 Descending Toronto Center
11:10PM 43.7231 -77.3883 85° East 477 549 40,200 -4,800 Descending Boston Center
11:11PM 43.7244 -77.2072 89° East 477 549 29,000 -5,640 Descending Boston Center
11:12PM 43.7250 -77.0436 90° East 447 514 29,000  Level Boston Center
11:13PM 44.1522 -77.0011 North 441 507 29,000  Level Boston Center
11:14PM 43.6792 -76.7211 157° South 461 531 29,000  Level Boston Center
11:15PM 43.5800 -76.5850 135° Southeast 446 513 29,000  Level Boston Center
11:16PM 43.4625 -76.4883 149° Southeast 479 551 29,000 -180 Level Boston Center
11:17PM 43.3450 -76.3892 148° Southeast 485 558 28,700 -360 Descending Boston Center
11:18PM 43.2500 -76.2833 141° Southeast 490 564 28,400 -540 Descending Toronto Center
11:18PM 43.2294 -76.2903 194° South 490 564 28,200 -300 Descending Boston Center
11:19PM 43.1158 -76.1950 149° Southeast 484 557 28,000 -300 Descending Boston Center
11:20PM 43.0147 -76.1064 147° Southeast 479 551 27,700 -600 Descending Boston Center
11:21PM 42.9008 -76.0089 148° Southeast 479 551 26,900 -840 Descending Boston Center
11:22PM 42.7889 -75.9203 150° Southeast 479 551 26,100 -840 Descending Boston Center
11:23PM 42.6772 -75.8264 148° Southeast 479 551 25,300 -1,200 Descending Boston Center
11:24PM 42.5694 -75.7333 148° Southeast 473 544 23,800 -1,500 Descending Boston Center
11:25PM 42.4614 -75.6458 149° Southeast 462 532 22,300 -1,500 Descending Boston Center
11:26PM 42.3575 -75.5561 147° Southeast 452 520 20,900 -1,500 Descending Boston Center
11:27PM 42.2556 -75.4725 149° Southeast 441 507 19,400 -1,500 Descending Boston Center
11:28PM 42.1578 -75.3922 149° Southeast 427 491 17,900 -1,260 Descending Boston Center
11:29PM 42.0706 -75.2931 140° Southeast 421 484 16,900 -480 Descending Boston Center
11:30PM 42.0008 -75.1586 125° Southeast 396 456 17,000  Climbing Boston Center
11:31PM 41.9639 -75.0481 114° Southeast 401 461 17,000 -1,140 Level Boston Center
11:32PM 41.8817 -74.9078 128° Southeast 401 461 14,800 -2,160 Descending Boston Center
11:33PM 41.8147 -74.8161 134° Southeast 383 441 12,700 -2,220 Descending Boston Center
11:34PM 41.7419 -74.7133 133° Southeast 355 409 10,400 -2,100 Descending Boston Center
11:35PM 41.6911 -74.6392 133° Southeast 316 364 8,600 -1,920 Descending Boston Center
11:36PM 41.6175 -74.5756 147° Southeast 295 339 6,600 -1,260 Descending Boston Center
11:37PM 41.5489 -74.5675 175° South 274 315 6,100 -300 Descending Boston Center
11:39PM 41.4087 -74.5824 185° South  Level FlightAware Approximate
11:42PM 41.2500 -74.5000 114° Southeast 256 295 5,100  Level New York TRACON
11:43PM 41.2000 -74.4167 129° Southeast 273 314 4,700 -540 Descending New York TRACON
11:45PM 41.0602 -74.2739 142° Southeast  Level Estimated
11:46PM 40.8500 -74.0500 114° Southeast  Level FlightAware Approximate
11:46PM 41.1000 -74.1833 142° Southeast 221 254 3,100  Level New York TRACON
11:47PM 40.8501 -74.0608 114° Southeast  Level Estimated
11:47PM 41.0667 -74.1167 124° Southeast 213 245 2,800  Level New York TRACON
11:48PM 41.0333 -74.0667 131° Southeast 179 206 2,100 -420 Descending New York TRACON
11:49PM 41.0000 -74.0500 159° South 154 177 2,000 -120 Descending New York TRACON